sensor_id;sensor_type;location;lat;lon;timestamp;P1;durP1;ratioP1;P2;durP2;ratioP2
75104;SDS011;64778;47.314;8.466;2023-02-28T00:00:18;9.88;;;6.60;;
75104;SDS011;64778;47.314;8.466;2023-02-28T00:02:45;9.80;;;7.07;;
75104;SDS011;64778;47.314;8.466;2023-02-28T00:05:12;8.57;;;6.43;;
75104;SDS011;64778;47.314;8.466;2023-02-28T00:07:39;8.68;;;6.72;;
75104;SDS011;64778;47.314;8.466;2023-02-28T00:10:08;10.05;;;7.20;;
75104;SDS011;64778;47.314;8.466;2023-02-28T00:12:38;9.43;;;6.93;;
75104;SDS011;64778;47.314;8.466;2023-02-28T00:26:03;10.25;;;6.80;;
75104;SDS011;64778;47.314;8.466;2023-02-28T00:28:33;10.63;;;7.13;;
75104;SDS011;64778;47.314;8.466;2023-02-28T00:31:02;10.77;;;6.90;;
75104;SDS011;64778;47.314;8.466;2023-02-28T00:33:28;8.82;;;6.50;;
75104;SDS011;64778;47.314;8.466;2023-02-28T00:36:01;9.32;;;6.85;;
75104;SDS011;64778;47.314;8.466;2023-02-28T00:38:31;8.57;;;6.75;;
75104;SDS011;64778;47.314;8.466;2023-02-28T00:40:56;8.90;;;6.80;;
75104;SDS011;64778;47.314;8.466;2023-02-28T00:43:23;9.52;;;6.88;;
75104;SDS011;64778;47.314;8.466;2023-02-28T00:45:53;9.10;;;6.82;;
75104;SDS011;64778;47.314;8.466;2023-02-28T00:48:19;9.82;;;7.25;;
75104;SDS011;64778;47.314;8.466;2023-02-28T00:50:49;9.30;;;7.10;;
75104;SDS011;64778;47.314;8.466;2023-02-28T00:53:15;10.73;;;7.38;;
75104;SDS011;64778;47.314;8.466;2023-02-28T00:55:41;8.85;;;6.60;;
75104;SDS011;64778;47.314;8.466;2023-02-28T01:01:11;9.60;;;7.07;;
75104;SDS011;64778;47.314;8.466;2023-02-28T01:03:37;10.23;;;7.22;;
75104;SDS011;64778;47.314;8.466;2023-02-28T01:06:04;10.68;;;7.30;;
75104;SDS011;64778;47.314;8.466;2023-02-28T01:08:30;9.65;;;7.22;;
75104;SDS011;64778;47.314;8.466;2023-02-28T01:10:58;10.73;;;7.18;;
75104;SDS011;64778;47.314;8.466;2023-02-28T01:13:37;10.30;;;7.30;;
75104;SDS011;64778;47.314;8.466;2023-02-28T01:16:06;9.20;;;6.87;;
75104;SDS011;64778;47.314;8.466;2023-02-28T01:18:32;9.20;;;7.23;;
75104;SDS011;64778;47.314;8.466;2023-02-28T01:20:57;9.27;;;7.03;;
75104;SDS011;64778;47.314;8.466;2023-02-28T01:23:27;9.88;;;6.97;;
75104;SDS011;64778;47.314;8.466;2023-02-28T01:25:55;11.48;;;7.70;;
75104;SDS011;64778;47.314;8.466;2023-02-28T01:28:21;10.63;;;7.20;;
75104;SDS011;64778;47.314;8.466;2023-02-28T01:30:51;9.77;;;7.25;;
75104;SDS011;64778;47.314;8.466;2023-02-28T01:33:19;11.00;;;7.60;;
75104;SDS011;64778;47.314;8.466;2023-02-28T01:35:56;12.18;;;7.63;;
75104;SDS011;64778;47.314;8.466;2023-02-28T01:38:29;8.98;;;6.93;;
75104;SDS011;64778;47.314;8.466;2023-02-28T01:45:14;10.15;;;7.38;;
75104;SDS011;64778;47.314;8.466;2023-02-28T01:47:35;10.27;;;7.93;;
75104;SDS011;64778;47.314;8.466;2023-02-28T01:50:04;10.13;;;7.72;;
75104;SDS011;64778;47.314;8.466;2023-02-28T01:52:34;11.77;;;8.13;;
75104;SDS011;64778;47.314;8.466;2023-02-28T01:55:01;11.20;;;8.20;;
75104;SDS011;64778;47.314;8.466;2023-02-28T01:57:38;11.52;;;7.82;;
75104;SDS011;64778;47.314;8.466;2023-02-28T02:00:09;11.77;;;8.05;;
75104;SDS011;64778;47.314;8.466;2023-02-28T02:02:41;10.47;;;7.90;;
75104;SDS011;64778;47.314;8.466;2023-02-28T02:05:11;9.23;;;7.38;;
75104;SDS011;64778;47.314;8.466;2023-02-28T02:07:45;11.32;;;7.40;;
75104;SDS011;64778;47.314;8.466;2023-02-28T02:18:46;8.77;;;7.45;;
75104;SDS011;64778;47.314;8.466;2023-02-28T02:21:24;10.80;;;8.13;;
75104;SDS011;64778;47.314;8.466;2023-02-28T02:24:19;11.10;;;8.18;;
75104;SDS011;64778;47.314;8.466;2023-02-28T02:40:46;10.07;;;7.25;;
75104;SDS011;64778;47.314;8.466;2023-02-28T02:43:20;10.43;;;7.47;;
75104;SDS011;64778;47.314;8.466;2023-02-28T02:46:11;10.35;;;7.70;;
75104;SDS011;64778;47.314;8.466;2023-02-28T02:48:50;11.63;;;7.63;;
75104;SDS011;64778;47.314;8.466;2023-02-28T02:51:20;11.02;;;8.00;;
75104;SDS011;64778;47.314;8.466;2023-02-28T02:53:51;9.53;;;7.80;;
75104;SDS011;64778;47.314;8.466;2023-02-28T02:56:28;10.57;;;7.60;;
75104;SDS011;64778;47.314;8.466;2023-02-28T02:59:02;9.77;;;7.65;;
75104;SDS011;64778;47.314;8.466;2023-02-28T03:01:31;12.02;;;8.43;;
75104;SDS011;64778;47.314;8.466;2023-02-28T03:04:03;10.20;;;8.05;;
75104;SDS011;64778;47.314;8.466;2023-02-28T03:06:35;11.23;;;7.83;;
75104;SDS011;64778;47.314;8.466;2023-02-28T03:09:00;10.70;;;8.00;;
75104;SDS011;64778;47.314;8.466;2023-02-28T03:11:30;9.90;;;7.53;;
75104;SDS011;64778;47.314;8.466;2023-02-28T03:22:40;12.03;;;8.00;;
75104;SDS011;64778;47.314;8.466;2023-02-28T03:30:38;11.13;;;7.88;;
75104;SDS011;64778;47.314;8.466;2023-02-28T03:35:55;10.95;;;8.05;;
75104;SDS011;64778;47.314;8.466;2023-02-28T03:38:35;10.10;;;7.57;;
75104;SDS011;64778;47.314;8.466;2023-02-28T03:41:14;11.50;;;8.03;;
75104;SDS011;64778;47.314;8.466;2023-02-28T03:44:04;11.90;;;7.90;;
75104;SDS011;64778;47.314;8.466;2023-02-28T03:46:40;11.17;;;7.87;;
75104;SDS011;64778;47.314;8.466;2023-02-28T03:52:37;11.30;;;8.23;;
75104;SDS011;64778;47.314;8.466;2023-02-28T03:55:10;12.10;;;7.50;;
75104;SDS011;64778;47.314;8.466;2023-02-28T03:57:47;10.27;;;7.65;;
75104;SDS011;64778;47.314;8.466;2023-02-28T04:00:25;11.38;;;7.90;;
75104;SDS011;64778;47.314;8.466;2023-02-28T04:02:55;12.10;;;7.90;;
75104;SDS011;64778;47.314;8.466;2023-02-28T04:05:23;10.27;;;7.70;;
75104;SDS011;64778;47.314;8.466;2023-02-28T04:07:54;10.50;;;7.95;;
75104;SDS011;64778;47.314;8.466;2023-02-28T04:10:27;10.45;;;8.10;;
75104;SDS011;64778;47.314;8.466;2023-02-28T04:12:56;11.38;;;8.20;;
75104;SDS011;64778;47.314;8.466;2023-02-28T04:15:23;11.98;;;8.35;;
75104;SDS011;64778;47.314;8.466;2023-02-28T04:17:52;11.17;;;7.87;;
75104;SDS011;64778;47.314;8.466;2023-02-28T04:20:20;10.73;;;8.02;;
75104;SDS011;64778;47.314;8.466;2023-02-28T04:22:53;12.52;;;8.30;;
75104;SDS011;64778;47.314;8.466;2023-02-28T04:25:20;11.37;;;8.07;;
75104;SDS011;64778;47.314;8.466;2023-02-28T04:27:46;10.50;;;7.93;;
75104;SDS011;64778;47.314;8.466;2023-02-28T04:30:16;10.37;;;8.03;;
75104;SDS011;64778;47.314;8.466;2023-02-28T04:32:42;10.57;;;7.67;;
75104;SDS011;64778;47.314;8.466;2023-02-28T04:38:35;9.98;;;7.57;;
75104;SDS011;64778;47.314;8.466;2023-02-28T04:41:06;10.70;;;7.90;;
75104;SDS011;64778;47.314;8.466;2023-02-28T04:43:35;10.98;;;7.88;;
75104;SDS011;64778;47.314;8.466;2023-02-28T04:46:01;11.57;;;8.05;;
75104;SDS011;64778;47.314;8.466;2023-02-28T04:48:31;9.25;;;7.60;;
75104;SDS011;64778;47.314;8.466;2023-02-28T04:53:35;11.30;;;8.13;;
75104;SDS011;64778;47.314;8.466;2023-02-28T04:56:04;11.23;;;8.23;;
75104;SDS011;64778;47.314;8.466;2023-02-28T04:58:31;10.67;;;8.23;;
75104;SDS011;64778;47.314;8.466;2023-02-28T05:01:04;10.73;;;7.60;;
75104;SDS011;64778;47.314;8.466;2023-02-28T05:03:41;11.38;;;7.90;;
75104;SDS011;64778;47.314;8.466;2023-02-28T05:06:08;10.73;;;8.27;;
75104;SDS011;64778;47.314;8.466;2023-02-28T05:08:40;12.03;;;7.60;;
75104;SDS011;64778;47.314;8.466;2023-02-28T05:11:30;9.80;;;7.43;;
75104;SDS011;64778;47.314;8.466;2023-02-28T05:17:21;10.32;;;7.90;;
75104;SDS011;64778;47.314;8.466;2023-02-28T05:23:12;10.13;;;7.57;;
75104;SDS011;64778;47.314;8.466;2023-02-28T05:29:00;10.38;;;7.82;;
75104;SDS011;64778;47.314;8.466;2023-02-28T05:31:26;11.50;;;7.97;;
75104;SDS011;64778;47.314;8.466;2023-02-28T05:33:54;11.43;;;7.77;;
75104;SDS011;64778;47.314;8.466;2023-02-28T05:36:22;11.13;;;7.60;;
75104;SDS011;64778;47.314;8.466;2023-02-28T05:38:48;10.10;;;7.63;;
75104;SDS011;64778;47.314;8.466;2023-02-28T05:41:18;12.57;;;8.43;;
75104;SDS011;64778;47.314;8.466;2023-02-28T05:46:56;11.80;;;8.18;;
75104;SDS011;64778;47.314;8.466;2023-02-28T05:49:22;10.60;;;7.65;;
75104;SDS011;64778;47.314;8.466;2023-02-28T05:51:50;11.47;;;8.30;;
75104;SDS011;64778;47.314;8.466;2023-02-28T05:54:18;11.38;;;8.63;;
75104;SDS011;64778;47.314;8.466;2023-02-28T05:56:44;9.65;;;7.63;;
75104;SDS011;64778;47.314;8.466;2023-02-28T05:59:13;10.75;;;7.78;;
75104;SDS011;64778;47.314;8.466;2023-02-28T06:01:39;9.90;;;7.73;;
75104;SDS011;64778;47.314;8.466;2023-02-28T06:04:15;11.48;;;8.00;;
75104;SDS011;64778;47.314;8.466;2023-02-28T06:10:06;12.45;;;8.13;;
75104;SDS011;64778;47.314;8.466;2023-02-28T06:12:39;10.73;;;8.05;;
75104;SDS011;64778;47.314;8.466;2023-02-28T06:15:07;10.75;;;8.05;;
75104;SDS011;64778;47.314;8.466;2023-02-28T06:17:36;13.57;;;8.32;;
75104;SDS011;64778;47.314;8.466;2023-02-28T06:20:03;12.32;;;8.43;;
75104;SDS011;64778;47.314;8.466;2023-02-28T06:25:54;12.27;;;8.43;;
75104;SDS011;64778;47.314;8.466;2023-02-28T06:28:23;12.13;;;8.40;;
75104;SDS011;64778;47.314;8.466;2023-02-28T06:34:14;12.23;;;7.93;;
75104;SDS011;64778;47.314;8.466;2023-02-28T06:36:41;11.60;;;8.35;;
75104;SDS011;64778;47.314;8.466;2023-02-28T06:39:11;11.07;;;8.10;;
75104;SDS011;64778;47.314;8.466;2023-02-28T06:41:37;11.93;;;8.17;;
75104;SDS011;64778;47.314;8.466;2023-02-28T06:44:05;12.80;;;8.80;;
75104;SDS011;64778;47.314;8.466;2023-02-28T06:46:36;16.90;;;10.43;;
75104;SDS011;64778;47.314;8.466;2023-02-28T06:49:05;11.13;;;7.72;;
75104;SDS011;64778;47.314;8.466;2023-02-28T06:51:36;11.38;;;7.35;;
75104;SDS011;64778;47.314;8.466;2023-02-28T06:54:08;11.90;;;7.63;;
75104;SDS011;64778;47.314;8.466;2023-02-28T06:56:36;10.20;;;7.77;;
75104;SDS011;64778;47.314;8.466;2023-02-28T06:59:05;12.70;;;8.77;;
75104;SDS011;64778;47.314;8.466;2023-02-28T07:01:33;13.02;;;8.30;;
75104;SDS011;64778;47.314;8.466;2023-02-28T07:04:01;11.77;;;7.80;;
75104;SDS011;64778;47.314;8.466;2023-02-28T07:06:29;11.40;;;7.97;;
75104;SDS011;64778;47.314;8.466;2023-02-28T07:08:57;10.65;;;8.23;;
75104;SDS011;64778;47.314;8.466;2023-02-28T07:11:24;10.40;;;7.50;;
75104;SDS011;64778;47.314;8.466;2023-02-28T07:13:55;11.50;;;7.90;;
75104;SDS011;64778;47.314;8.466;2023-02-28T07:16:24;10.77;;;7.88;;
75104;SDS011;64778;47.314;8.466;2023-02-28T07:18:53;12.45;;;8.15;;
75104;SDS011;64778;47.314;8.466;2023-02-28T07:21:21;11.77;;;8.18;;
75104;SDS011;64778;47.314;8.466;2023-02-28T07:23:49;12.25;;;7.70;;
75104;SDS011;64778;47.314;8.466;2023-02-28T07:26:17;22.10;;;13.07;;
75104;SDS011;64778;47.314;8.466;2023-02-28T07:28:44;11.27;;;7.95;;
75104;SDS011;64778;47.314;8.466;2023-02-28T07:31:13;10.80;;;7.80;;
75104;SDS011;64778;47.314;8.466;2023-02-28T07:33:45;11.43;;;8.10;;
75104;SDS011;64778;47.314;8.466;2023-02-28T07:36:15;11.80;;;8.10;;
75104;SDS011;64778;47.314;8.466;2023-02-28T07:38:44;11.80;;;8.35;;
75104;SDS011;64778;47.314;8.466;2023-02-28T07:41:18;14.43;;;9.57;;
75104;SDS011;64778;47.314;8.466;2023-02-28T07:43:45;11.40;;;7.90;;
75104;SDS011;64778;47.314;8.466;2023-02-28T07:46:12;12.40;;;7.83;;
75104;SDS011;64778;47.314;8.466;2023-02-28T07:48:41;11.38;;;7.70;;
75104;SDS011;64778;47.314;8.466;2023-02-28T07:51:12;11.57;;;7.83;;
75104;SDS011;64778;47.314;8.466;2023-02-28T07:53:40;9.75;;;7.53;;
75104;SDS011;64778;47.314;8.466;2023-02-28T07:56:08;9.95;;;7.40;;
75104;SDS011;64778;47.314;8.466;2023-02-28T07:58:36;11.25;;;7.90;;
75104;SDS011;64778;47.314;8.466;2023-02-28T08:01:05;10.70;;;7.75;;
75104;SDS011;64778;47.314;8.466;2023-02-28T08:03:31;12.80;;;7.82;;
75104;SDS011;64778;47.314;8.466;2023-02-28T08:05:57;10.27;;;7.43;;
75104;SDS011;64778;47.314;8.466;2023-02-28T08:08:25;10.85;;;7.80;;
75104;SDS011;64778;47.314;8.466;2023-02-28T08:10:59;11.05;;;7.85;;
75104;SDS011;64778;47.314;8.466;2023-02-28T08:13:28;11.00;;;8.30;;
75104;SDS011;64778;47.314;8.466;2023-02-28T08:16:00;12.23;;;7.80;;
75104;SDS011;64778;47.314;8.466;2023-02-28T08:18:29;10.70;;;7.68;;
75104;SDS011;64778;47.314;8.466;2023-02-28T08:20:55;11.32;;;7.47;;
75104;SDS011;64778;47.314;8.466;2023-02-28T08:23:22;10.98;;;7.30;;
75104;SDS011;64778;47.314;8.466;2023-02-28T08:25:56;11.35;;;7.78;;
75104;SDS011;64778;47.314;8.466;2023-02-28T08:28:22;10.47;;;7.57;;
75104;SDS011;64778;47.314;8.466;2023-02-28T08:30:48;10.23;;;7.53;;
75104;SDS011;64778;47.314;8.466;2023-02-28T08:33:18;11.30;;;7.70;;
75104;SDS011;64778;47.314;8.466;2023-02-28T08:35:47;10.57;;;7.65;;
75104;SDS011;64778;47.314;8.466;2023-02-28T08:38:16;10.63;;;7.72;;
75104;SDS011;64778;47.314;8.466;2023-02-28T08:40:42;13.77;;;9.37;;
75104;SDS011;64778;47.314;8.466;2023-02-28T08:43:07;11.73;;;8.00;;
75104;SDS011;64778;47.314;8.466;2023-02-28T08:45:33;11.98;;;6.70;;
75104;SDS011;64778;47.314;8.466;2023-02-28T08:47:59;18.55;;;7.53;;
75104;SDS011;64778;47.314;8.466;2023-02-28T08:50:29;11.75;;;7.40;;
75104;SDS011;64778;47.314;8.466;2023-02-28T08:52:55;10.60;;;6.60;;
75104;SDS011;64778;47.314;8.466;2023-02-28T08:55:25;8.90;;;6.35;;
75104;SDS011;64778;47.314;8.466;2023-02-28T08:57:55;11.10;;;6.75;;
75104;SDS011;64778;47.314;8.466;2023-02-28T09:00:21;10.50;;;6.63;;
75104;SDS011;64778;47.314;8.466;2023-02-28T09:02:50;11.27;;;6.43;;
75104;SDS011;64778;47.314;8.466;2023-02-28T09:05:15;10.55;;;6.32;;
75104;SDS011;64778;47.314;8.466;2023-02-28T09:07:43;11.60;;;6.32;;
75104;SDS011;64778;47.314;8.466;2023-02-28T09:10:09;11.43;;;7.13;;
75104;SDS011;64778;47.314;8.466;2023-02-28T09:12:35;11.82;;;6.75;;
75104;SDS011;64778;47.314;8.466;2023-02-28T09:15:01;10.88;;;6.70;;
75104;SDS011;64778;47.314;8.466;2023-02-28T09:17:27;11.95;;;6.88;;
75104;SDS011;64778;47.314;8.466;2023-02-28T09:19:55;10.85;;;7.03;;
75104;SDS011;64778;47.314;8.466;2023-02-28T09:22:21;11.10;;;7.07;;
75104;SDS011;64778;47.314;8.466;2023-02-28T09:24:49;14.40;;;7.10;;
75104;SDS011;64778;47.314;8.466;2023-02-28T09:27:17;11.27;;;6.80;;
75104;SDS011;64778;47.314;8.466;2023-02-28T09:29:45;11.63;;;6.55;;
75104;SDS011;64778;47.314;8.466;2023-02-28T09:32:13;18.25;;;8.85;;
75104;SDS011;64778;47.314;8.466;2023-02-28T09:34:39;17.10;;;8.63;;
75104;SDS011;64778;47.314;8.466;2023-02-28T09:37:05;11.48;;;7.30;;
75104;SDS011;64778;47.314;8.466;2023-02-28T09:39:31;11.00;;;7.00;;
75104;SDS011;64778;47.314;8.466;2023-02-28T09:46:59;12.52;;;6.68;;
75104;SDS011;64778;47.314;8.466;2023-02-28T09:49:37;13.00;;;7.38;;
75104;SDS011;64778;47.314;8.466;2023-02-28T09:52:17;14.60;;;7.65;;
75104;SDS011;64778;47.314;8.466;2023-02-28T09:54:48;11.00;;;6.60;;
75104;SDS011;64778;47.314;8.466;2023-02-28T09:57:31;13.68;;;7.80;;
75104;SDS011;64778;47.314;8.466;2023-02-28T10:00:40;12.90;;;7.38;;
75104;SDS011;64778;47.314;8.466;2023-02-28T10:05:44;15.07;;;7.80;;
75104;SDS011;64778;47.314;8.466;2023-02-28T10:08:37;16.13;;;10.57;;
75104;SDS011;64778;47.314;8.466;2023-02-28T10:11:07;12.25;;;9.30;;
75104;SDS011;64778;47.314;8.466;2023-02-28T10:13:58;12.32;;;8.82;;
75104;SDS011;64778;47.314;8.466;2023-02-28T10:16:31;13.20;;;9.27;;
75104;SDS011;64778;47.314;8.466;2023-02-28T10:25:18;11.70;;;8.27;;
75104;SDS011;64778;47.314;8.466;2023-02-28T10:27:49;12.52;;;8.80;;
75104;SDS011;64778;47.314;8.466;2023-02-28T10:30:21;14.80;;;9.30;;
75104;SDS011;64778;47.314;8.466;2023-02-28T10:32:51;12.82;;;9.18;;
75104;SDS011;64778;47.314;8.466;2023-02-28T10:35:20;11.88;;;9.10;;
75104;SDS011;64778;47.314;8.466;2023-02-28T10:37:54;17.30;;;10.25;;
75104;SDS011;64778;47.314;8.466;2023-02-28T10:40:29;12.93;;;8.48;;
75104;SDS011;64778;47.314;8.466;2023-02-28T10:43:16;11.23;;;7.20;;
75104;SDS011;64778;47.314;8.466;2023-02-28T10:45:53;12.43;;;6.88;;
75104;SDS011;64778;47.314;8.466;2023-02-28T10:58:25;9.02;;;6.28;;
75104;SDS011;64778;47.314;8.466;2023-02-28T11:00:54;11.07;;;6.65;;
75104;SDS011;64778;47.314;8.466;2023-02-28T11:03:29;12.38;;;7.50;;
75104;SDS011;64778;47.314;8.466;2023-02-28T11:05:57;10.90;;;7.43;;
75104;SDS011;64778;47.314;8.466;2023-02-28T11:08:23;14.75;;;8.27;;
75104;SDS011;64778;47.314;8.466;2023-02-28T11:10:59;12.85;;;6.80;;
75104;SDS011;64778;47.314;8.466;2023-02-28T11:13:33;11.43;;;6.95;;
75104;SDS011;64778;47.314;8.466;2023-02-28T11:16:05;13.82;;;7.10;;
75104;SDS011;64778;47.314;8.466;2023-02-28T11:18:51;13.80;;;7.28;;
75104;SDS011;64778;47.314;8.466;2023-02-28T11:21:26;12.15;;;7.32;;
75104;SDS011;64778;47.314;8.466;2023-02-28T11:23:58;12.15;;;6.90;;
75104;SDS011;64778;47.314;8.466;2023-02-28T11:29:53;11.50;;;6.88;;
75104;SDS011;64778;47.314;8.466;2023-02-28T11:32:21;12.40;;;7.13;;
75104;SDS011;64778;47.314;8.466;2023-02-28T11:37:35;12.13;;;7.22;;
75104;SDS011;64778;47.314;8.466;2023-02-28T11:40:05;12.20;;;7.18;;
75104;SDS011;64778;47.314;8.466;2023-02-28T11:43:01;15.65;;;8.23;;
75104;SDS011;64778;47.314;8.466;2023-02-28T11:45:58;10.85;;;6.80;;
75104;SDS011;64778;47.314;8.466;2023-02-28T11:48:38;10.98;;;6.65;;
75104;SDS011;64778;47.314;8.466;2023-02-28T11:54:12;11.05;;;6.90;;
75104;SDS011;64778;47.314;8.466;2023-02-28T11:56:57;13.27;;;7.60;;
75104;SDS011;64778;47.314;8.466;2023-02-28T12:10:24;14.43;;;7.20;;
75104;SDS011;64778;47.314;8.466;2023-02-28T20:01:15;22.02;;;11.55;;
75104;SDS011;64778;47.314;8.466;2023-02-28T20:03:50;36.45;;;18.75;;
75104;SDS011;64778;47.314;8.466;2023-02-28T20:06:16;24.40;;;12.75;;
75104;SDS011;64778;47.314;8.466;2023-02-28T20:08:42;24.15;;;13.07;;
75104;SDS011;64778;47.314;8.466;2023-02-28T20:11:10;25.15;;;12.13;;
75104;SDS011;64778;47.314;8.466;2023-02-28T20:13:39;22.60;;;12.35;;
75104;SDS011;64778;47.314;8.466;2023-02-28T20:19:26;23.67;;;15.85;;
75104;SDS011;64778;47.314;8.466;2023-02-28T20:25:16;21.70;;;15.25;;
75104;SDS011;64778;47.314;8.466;2023-02-28T20:27:41;21.95;;;15.38;;
75104;SDS011;64778;47.314;8.466;2023-02-28T20:30:08;22.55;;;15.63;;
75104;SDS011;64778;47.314;8.466;2023-02-28T20:32:36;22.90;;;14.98;;
75104;SDS011;64778;47.314;8.466;2023-02-28T20:38:20;21.33;;;14.70;;
75104;SDS011;64778;47.314;8.466;2023-02-28T20:40:46;22.50;;;15.45;;
75104;SDS011;64778;47.314;8.466;2023-02-28T20:43:14;22.50;;;15.20;;
75104;SDS011;64778;47.314;8.466;2023-02-28T20:45:39;21.00;;;14.88;;
75104;SDS011;64778;47.314;8.466;2023-02-28T20:48:17;21.73;;;15.30;;
75104;SDS011;64778;47.314;8.466;2023-02-28T20:50:49;22.30;;;15.35;;
75104;SDS011;64778;47.314;8.466;2023-02-28T20:53:16;21.33;;;15.15;;
75104;SDS011;64778;47.314;8.466;2023-02-28T20:56:01;22.85;;;15.68;;
75104;SDS011;64778;47.314;8.466;2023-02-28T20:58:36;23.23;;;15.93;;
75104;SDS011;64778;47.314;8.466;2023-02-28T21:03:29;22.55;;;15.68;;
75104;SDS011;64778;47.314;8.466;2023-02-28T21:05:59;21.90;;;15.00;;
75104;SDS011;64778;47.314;8.466;2023-02-28T21:08:26;23.53;;;16.00;;
75104;SDS011;64778;47.314;8.466;2023-02-28T21:10:54;21.43;;;14.97;;
75104;SDS011;64778;47.314;8.466;2023-02-28T21:13:19;22.00;;;15.70;;
75104;SDS011;64778;47.314;8.466;2023-02-28T21:15:45;22.10;;;15.48;;
75104;SDS011;64778;47.314;8.466;2023-02-28T21:18:13;22.75;;;15.05;;
75104;SDS011;64778;47.314;8.466;2023-02-28T21:20:39;22.17;;;15.40;;
75104;SDS011;64778;47.314;8.466;2023-02-28T21:23:05;24.40;;;16.50;;
75104;SDS011;64778;47.314;8.466;2023-02-28T21:28:56;23.65;;;16.10;;
75104;SDS011;64778;47.314;8.466;2023-02-28T21:34:45;23.27;;;16.40;;
75104;SDS011;64778;47.314;8.466;2023-02-28T21:37:13;24.23;;;16.52;;
75104;SDS011;64778;47.314;8.466;2023-02-28T21:39:38;23.03;;;16.10;;
75104;SDS011;64778;47.314;8.466;2023-02-28T21:42:06;23.75;;;16.08;;
75104;SDS011;64778;47.314;8.466;2023-02-28T21:47:56;22.83;;;16.13;;
75104;SDS011;64778;47.314;8.466;2023-02-28T21:50:21;24.57;;;16.90;;
75104;SDS011;64778;47.314;8.466;2023-02-28T21:56:13;24.08;;;16.17;;
75104;SDS011;64778;47.314;8.466;2023-02-28T22:02:07;25.95;;;16.90;;
75104;SDS011;64778;47.314;8.466;2023-02-28T22:04:34;23.17;;;16.40;;
75104;SDS011;64778;47.314;8.466;2023-02-28T22:07:00;23.33;;;16.63;;
75104;SDS011;64778;47.314;8.466;2023-02-28T22:09:26;23.58;;;16.70;;
75104;SDS011;64778;47.314;8.466;2023-02-28T22:11:52;24.52;;;16.90;;
75104;SDS011;64778;47.314;8.466;2023-02-28T22:14:20;23.73;;;16.40;;
75104;SDS011;64778;47.314;8.466;2023-02-28T22:16:49;25.75;;;16.60;;
75104;SDS011;64778;47.314;8.466;2023-02-28T22:19:20;27.60;;;16.75;;
75104;SDS011;64778;47.314;8.466;2023-02-28T22:21:46;25.23;;;17.20;;
75104;SDS011;64778;47.314;8.466;2023-02-28T22:24:17;25.83;;;16.83;;
75104;SDS011;64778;47.314;8.466;2023-02-28T22:26:48;24.92;;;16.92;;
75104;SDS011;64778;47.314;8.466;2023-02-28T22:29:14;25.85;;;17.30;;
75104;SDS011;64778;47.314;8.466;2023-02-28T22:31:42;25.40;;;17.07;;
75104;SDS011;64778;47.314;8.466;2023-02-28T22:34:09;23.47;;;16.43;;
75104;SDS011;64778;47.314;8.466;2023-02-28T22:36:36;24.15;;;16.80;;
75104;SDS011;64778;47.314;8.466;2023-02-28T22:39:06;24.93;;;17.13;;
75104;SDS011;64778;47.314;8.466;2023-02-28T22:41:32;23.75;;;16.80;;
75104;SDS011;64778;47.314;8.466;2023-02-28T22:47:20;26.30;;;17.55;;
75104;SDS011;64778;47.314;8.466;2023-02-28T22:53:11;26.08;;;17.35;;
75104;SDS011;64778;47.314;8.466;2023-02-28T22:55:36;26.73;;;17.45;;
75104;SDS011;64778;47.314;8.466;2023-02-28T22:58:04;26.10;;;17.43;;
75104;SDS011;64778;47.314;8.466;2023-02-28T23:00:30;27.58;;;17.63;;
75104;SDS011;64778;47.314;8.466;2023-02-28T23:02:58;30.95;;;20.00;;
75104;SDS011;64778;47.314;8.466;2023-02-28T23:05:28;26.42;;;17.27;;
75104;SDS011;64778;47.314;8.466;2023-02-28T23:07:57;26.30;;;17.88;;
75104;SDS011;64778;47.314;8.466;2023-02-28T23:13:47;27.60;;;18.38;;
75104;SDS011;64778;47.314;8.466;2023-02-28T23:16:22;27.58;;;18.38;;
75104;SDS011;64778;47.314;8.466;2023-02-28T23:18:53;28.55;;;18.80;;
75104;SDS011;64778;47.314;8.466;2023-02-28T23:21:22;25.95;;;18.02;;
75104;SDS011;64778;47.314;8.466;2023-02-28T23:23:51;25.83;;;18.10;;
75104;SDS011;64778;47.314;8.466;2023-02-28T23:26:17;28.13;;;18.13;;
75104;SDS011;64778;47.314;8.466;2023-02-28T23:28:43;27.95;;;18.67;;
75104;SDS011;64778;47.314;8.466;2023-02-28T23:34:35;27.43;;;18.10;;
75104;SDS011;64778;47.314;8.466;2023-02-28T23:37:05;27.15;;;18.83;;
75104;SDS011;64778;47.314;8.466;2023-02-28T23:39:31;26.77;;;18.33;;
75104;SDS011;64778;47.314;8.466;2023-02-28T23:41:58;28.33;;;19.65;;
75104;SDS011;64778;47.314;8.466;2023-02-28T23:44:25;28.27;;;18.90;;
75104;SDS011;64778;47.314;8.466;2023-02-28T23:46:51;28.77;;;19.17;;
75104;SDS011;64778;47.314;8.466;2023-02-28T23:49:18;26.73;;;18.83;;
75104;SDS011;64778;47.314;8.466;2023-02-28T23:51:44;26.83;;;18.60;;
75104;SDS011;64778;47.314;8.466;2023-02-28T23:54:11;27.33;;;18.50;;
75104;SDS011;64778;47.314;8.466;2023-02-28T23:56:39;29.75;;;19.35;;
75104;SDS011;64778;47.314;8.466;2023-02-28T23:59:07;30.43;;;18.83;;
